Time;durP1;ratioP1;P1;durP2;ratioP2;P2;SDS_P1;SDS_P2;PMS_P1;PMS_P2;Temp;Humidity;BMP_temperature;BMP_pressure;BME280_temperature;BME280_humidity;BME280_pressure;Samples;Min_cycle;Max_cycle;Signal;HPM_P1;HPM_P2
2022/05/21 00:02:04;;;;;;;;;;;14.10;76.40;;;;;;4981623;28;19930;-84
2022/05/21 00:04:29;;;;;;;;;;;14.10;76.70;;;;;;4981948;28;19988;-83
2022/05/21 00:06:56;;;;;;;;;;;14.10;76.80;;;;;;4997604;28;20397;-84
2022/05/21 00:09:22;;;;;;;;;;;14.20;76.20;;;;;;4996681;28;19914;-84
2022/05/21 00:11:47;;;;;;;;;;;14.10;76.90;;;;;;4999260;28;20312;-84
2022/05/21 00:14:13;;;;;;;;;;;14.10;76.50;;;;;;4998412;28;19936;-84
2022/05/21 00:16:38;;;;;;;;;;;14.10;76.30;;;;;;5003028;28;19918;-84
2022/05/21 00:19:04;;;;;;;;;;;14.10;76.50;;;;;;4994582;28;20250;-84
2022/05/21 00:21:30;;;;;;;;;;;14.20;76.60;;;;;;4995955;28;19917;-84
2022/05/21 00:23:55;;;;;;;;;;;14.10;77.20;;;;;;4996864;28;19973;-84
2022/05/21 00:26:21;;;;;;;;;;;14.10;77.00;;;;;;4997934;28;19977;-84
2022/05/21 00:28:47;;;;;;;;;;;14.00;77.70;;;;;;5008185;28;19906;-84
2022/05/21 00:31:14;;;;;;;;;;;14.10;77.70;;;;;;5012044;28;19916;-84
2022/05/21 00:33:39;;;;;;;;;;;14.10;78.00;;;;;;5020024;28;20051;-84
2022/05/21 00:36:07;;;;;;;;;;;14.20;77.50;;;;;;5001066;28;19976;-84
2022/05/21 00:38:32;;;;;;;;;;;14.10;77.70;;;;;;4979462;28;19997;-83
2022/05/21 00:40:58;;;;;;;;;;;14.10;78.00;;;;;;4997065;28;19957;-84
2022/05/21 00:43:42;;;;;;;;;;;14.10;78.20;;;;;;4997819;28;19993;-84
2022/05/21 00:46:09;;;;;;;;;;;14.00;78.20;;;;;;4986943;28;19914;-83
2022/05/21 00:48:35;;;;;;;;;;;13.90;79.00;;;;;;4990918;28;19921;-85
2022/05/21 00:51:01;;;;;;;;;;;13.90;79.50;;;;;;4980708;28;19902;-84
2022/05/21 00:53:26;;;;;;;;;;;13.80;79.20;;;;;;4989758;28;19961;-84
2022/05/21 00:55:52;;;;;;;;;;;13.80;79.50;;;;;;5001391;28;19968;-84
2022/05/21 01:01:03;;;;;;;;;;;13.60;80.30;;;;;;4995450;28;20367;-84
2022/05/21 01:03:29;;;;;;;;;;;13.60;80.10;;;;;;4987604;28;19978;-83
2022/05/21 01:05:57;;;;;;;;;;;13.60;80.10;;;;;;4982588;28;19914;-84
2022/05/21 01:08:22;;;;;;;;;;;13.60;80.50;;;;;;4993194;28;20070;-84
2022/05/21 01:10:50;;;;;;;;;;;13.50;81.10;;;;;;4992252;28;20029;-83
2022/05/21 01:13:18;;;;;;;;;;;13.40;80.80;;;;;;4997694;28;19928;-83
2022/05/21 01:15:45;;;;;;;;;;;13.50;80.70;;;;;;4989831;28;19922;-84
2022/05/21 01:18:11;;;;;;;;;;;13.40;80.50;;;;;;4991505;28;19918;-84
2022/05/21 01:20:37;;;;;;;;;;;13.40;80.80;;;;;;4995105;28;19964;-83
2022/05/21 01:23:02;;;;;;;;;;;13.40;81.20;;;;;;4992129;28;19914;-84
2022/05/21 01:25:29;;;;;;;;;;;13.30;81.40;;;;;;4992796;28;19976;-83
2022/05/21 01:27:54;;;;;;;;;;;13.30;81.50;;;;;;4991434;28;19922;-84
2022/05/21 01:30:26;;;;;;;;;;;13.20;81.70;;;;;;4992052;28;19924;-83
2022/05/21 01:32:52;;;;;;;;;;;13.20;82.00;;;;;;4992411;28;19934;-83
2022/05/21 01:35:21;;;;;;;;;;;13.20;81.60;;;;;;4974080;28;19996;-83
2022/05/21 01:37:47;;;;;;;;;;;13.20;81.50;;;;;;4998976;28;19937;-83
2022/05/21 01:40:13;;;;;;;;;;;13.20;81.80;;;;;;4994607;28;20292;-84
2022/05/21 01:42:38;;;;;;;;;;;13.20;81.80;;;;;;4996517;28;19924;-84
2022/05/21 01:45:04;;;;;;;;;;;13.10;81.40;;;;;;4995136;28;20392;-84
2022/05/21 01:47:31;;;;;;;;;;;13.10;81.70;;;;;;4978641;28;19998;-83
2022/05/21 01:49:56;;;;;;;;;;;13.10;82.00;;;;;;5005429;28;20048;-84
2022/05/21 01:52:22;;;;;;;;;;;13.10;82.40;;;;;;5005831;28;19971;-84
2022/05/21 01:54:47;;;;;;;;;;;13.10;81.90;;;;;;5012140;28;20372;-84
2022/05/21 01:57:13;;;;;;;;;;;13.00;82.10;;;;;;5010769;28;19905;-84
2022/05/21 01:59:39;;;;;;;;;;;13.00;82.20;;;;;;5000235;28;20008;-84
2022/05/21 02:02:05;;;;;;;;;;;13.00;82.60;;;;;;4993597;28;20008;-83
2022/05/21 02:04:31;;;;;;;;;;;13.00;82.30;;;;;;4979730;28;20459;-84
2022/05/21 02:06:56;;;;;;;;;;;13.00;82.00;;;;;;4990936;28;20446;-84
2022/05/21 02:09:21;;;;;;;;;;;13.10;82.00;;;;;;4990887;28;20004;-84
2022/05/21 02:11:47;;;;;;;;;;;13.10;81.90;;;;;;4995095;28;20001;-84
2022/05/21 02:14:13;;;;;;;;;;;13.10;81.90;;;;;;4994640;28;20017;-83
2022/05/21 02:16:39;;;;;;;;;;;13.20;81.80;;;;;;4999858;28;20017;-84
2022/05/21 02:19:05;;;;;;;;;;;13.20;81.40;;;;;;4998004;28;19936;-84
2022/05/21 02:21:31;;;;;;;;;;;13.30;81.00;;;;;;4999005;28;19918;-83
2022/05/21 02:23:57;;;;;;;;;;;13.20;80.90;;;;;;4981182;28;20348;-84
2022/05/21 02:26:22;;;;;;;;;;;13.20;81.40;;;;;;4998477;28;19918;-84
2022/05/21 02:28:48;;;;;;;;;;;13.10;81.20;;;;;;4997198;28;19913;-84
2022/05/21 02:31:14;;;;;;;;;;;13.20;81.10;;;;;;5006924;28;19990;-84
2022/05/21 02:33:43;;;;;;;;;;;13.20;81.00;;;;;;4976691;28;19929;-84
2022/05/21 02:36:09;;;;;;;;;;;13.20;81.00;;;;;;4978804;28;19925;-84
2022/05/21 02:41:18;;;;;;;;;;;13.30;80.70;;;;;;5008558;28;19965;-84
2022/05/21 02:43:44;;;;;;;;;;;13.30;80.90;;;;;;5010550;28;19921;-84
2022/05/21 02:46:10;;;;;;;;;;;13.30;80.70;;;;;;4998576;28;19914;-84
2022/05/21 02:48:36;;;;;;;;;;;13.40;80.70;;;;;;5015501;28;19922;-85
2022/05/21 02:51:01;;;;;;;;;;;13.40;80.30;;;;;;5002602;28;19918;-85
2022/05/21 02:53:27;;;;;;;;;;;13.40;80.30;;;;;;5022071;23;19980;-82
2022/05/21 02:55:55;;;;;;;;;;;13.30;80.70;;;;;;5013527;28;19944;-83
2022/05/21 02:58:21;;;;;;;;;;;13.40;80.80;;;;;;5013791;28;19920;-83
2022/05/21 03:00:47;;;;;;;;;;;13.40;80.40;;;;;;5005386;28;20360;-83
2022/05/21 03:03:13;;;;;;;;;;;13.50;80.20;;;;;;5011982;28;20000;-83
2022/05/21 03:05:39;;;;;;;;;;;13.30;80.00;;;;;;5006069;28;20312;-83
2022/05/21 03:10:52;;;;;;;;;;;13.50;80.40;;;;;;5007685;28;20004;-82
2022/05/21 03:13:17;;;;;;;;;;;13.40;79.90;;;;;;5029618;28;20567;-83
2022/05/21 03:15:43;;;;;;;;;;;13.50;80.50;;;;;;5010811;28;20001;-83
2022/05/21 03:18:10;;;;;;;;;;;13.60;79.40;;;;;;5012456;28;19913;-83
2022/05/21 03:20:35;;;;;;;;;;;13.60;79.60;;;;;;5009706;28;19917;-83
2022/05/21 03:23:01;;;;;;;;;;;13.50;79.80;;;;;;5012324;28;19960;-83
2022/05/21 03:25:26;;;;;;;;;;;13.50;80.00;;;;;;5013729;28;20284;-83
2022/05/21 03:27:52;;;;;;;;;;;13.40;80.10;;;;;;5014165;28;19928;-83
2022/05/21 03:30:19;;;;;;;;;;;13.30;80.40;;;;;;5027209;28;19925;-83
2022/05/21 03:32:45;;;;;;;;;;;13.30;80.40;;;;;;5016187;28;19926;-83
2022/05/21 03:35:11;;;;;;;;;;;13.30;80.50;;;;;;5036075;28;19929;-83
2022/05/21 03:37:37;;;;;;;;;;;13.30;80.40;;;;;;5039524;28;19924;-83
2022/05/21 03:40:03;;;;;;;;;;;13.30;80.90;;;;;;5019740;28;19913;-83
2022/05/21 03:42:29;;;;;;;;;;;13.30;80.20;;;;;;5022188;28;20297;-83
2022/05/21 03:44:54;;;;;;;;;;;13.30;80.00;;;;;;5020823;28;19917;-82
2022/05/21 03:47:20;;;;;;;;;;;13.20;80.30;;;;;;5019967;28;19925;-83
2022/05/21 03:49:45;;;;;;;;;;;13.20;80.60;;;;;;5033025;28;19913;-83
2022/05/21 03:52:11;;;;;;;;;;;13.30;80.60;;;;;;5035660;28;19964;-83
2022/05/21 03:54:36;;;;;;;;;;;13.30;80.80;;;;;;5014662;28;19937;-83
2022/05/21 03:57:02;;;;;;;;;;;13.30;80.60;;;;;;5020726;28;19917;-83
2022/05/21 03:59:27;;;;;;;;;;;13.40;80.20;;;;;;5014424;28;20287;-83
2022/05/21 04:01:53;;;;;;;;;;;13.40;80.40;;;;;;5019067;28;19914;-83
2022/05/21 04:04:18;;;;;;;;;;;13.30;80.70;;;;;;5024328;28;19925;-83
2022/05/21 04:06:44;;;;;;;;;;;13.30;80.50;;;;;;5037881;28;19914;-83
2022/05/21 04:09:10;;;;;;;;;;;13.30;80.50;;;;;;5019577;28;19913;-83
2022/05/21 04:11:35;;;;;;;;;;;13.30;80.60;;;;;;5018561;28;19914;-83
2022/05/21 04:14:01;;;;;;;;;;;13.30;80.30;;;;;;5019015;28;19918;-83
2022/05/21 04:16:27;;;;;;;;;;;13.30;80.40;;;;;;5017773;28;19920;-83
2022/05/21 04:18:53;;;;;;;;;;;13.20;80.90;;;;;;5029781;28;19918;-83
2022/05/21 04:21:19;;;;;;;;;;;13.20;81.00;;;;;;5016021;28;20361;-83
2022/05/21 04:23:44;;;;;;;;;;;13.40;80.60;;;;;;5024467;28;19925;-83
2022/05/21 04:26:10;;;;;;;;;;;13.30;80.60;;;;;;5011753;28;19976;-82
2022/05/21 04:28:35;;;;;;;;;;;13.30;80.90;;;;;;5026611;28;20012;-83
2022/05/21 04:31:01;;;;;;;;;;;13.30;81.30;;;;;;5008961;28;20012;-83
2022/05/21 04:33:26;;;;;;;;;;;13.40;80.90;;;;;;5011200;28;19924;-83
2022/05/21 04:38:36;;;;;;;;;;;13.40;80.70;;;;;;5010191;28;19987;-83
2022/05/21 04:41:01;;;;;;;;;;;13.30;81.30;;;;;;5010754;28;19917;-83
2022/05/21 04:43:27;;;;;;;;;;;13.20;81.30;;;;;;5028113;28;19967;-82
2022/05/21 04:45:55;;;;;;;;;;;13.30;81.40;;;;;;5011057;28;19916;-84
2022/05/21 04:48:21;;;;;;;;;;;13.40;81.60;;;;;;5015506;28;19925;-85
2022/05/21 04:50:46;;;;;;;;;;;13.40;81.30;;;;;;5018263;28;19909;-84
2022/05/21 04:53:12;;;;;;;;;;;13.40;81.30;;;;;;5006386;28;20458;-83
2022/05/21 04:55:37;;;;;;;;;;;13.50;81.30;;;;;;5009323;28;20372;-82
2022/05/21 04:58:03;;;;;;;;;;;13.50;81.60;;;;;;5010478;28;20380;-83
2022/05/21 05:00:28;;;;;;;;;;;13.50;81.60;;;;;;5009293;28;19917;-83
2022/05/21 05:02:54;;;;;;;;;;;13.40;81.30;;;;;;5005167;28;19945;-83
2022/05/21 05:05:19;;;;;;;;;;;13.50;81.20;;;;;;5005193;28;19918;-83
2022/05/21 05:07:45;;;;;;;;;;;13.50;81.60;;;;;;5026889;28;19996;-82
2022/05/21 05:10:10;;;;;;;;;;;13.50;81.20;;;;;;5012364;28;20016;-82
2022/05/21 05:12:36;;;;;;;;;;;13.50;81.20;;;;;;5011466;28;19913;-83
2022/05/21 05:15:01;;;;;;;;;;;13.50;81.40;;;;;;5005224;28;19926;-83
2022/05/21 05:17:27;;;;;;;;;;;13.50;81.30;;;;;;5005986;28;19983;-83
2022/05/21 05:19:54;;;;;;;;;;;13.50;81.10;;;;;;5005642;28;19918;-83
2022/05/21 05:22:20;;;;;;;;;;;13.50;80.60;;;;;;5025273;28;19913;-83
2022/05/21 05:24:45;;;;;;;;;;;13.50;81.20;;;;;;5026781;28;19963;-83
2022/05/21 05:27:11;;;;;;;;;;;13.60;81.10;;;;;;5006940;28;19989;-82
2022/05/21 05:29:36;;;;;;;;;;;13.60;80.80;;;;;;5006497;28;19945;-83
2022/05/21 05:32:02;;;;;;;;;;;13.70;80.50;;;;;;5024375;28;19929;-84
2022/05/21 05:34:28;;;;;;;;;;;13.80;80.00;;;;;;5025849;28;19918;-82
2022/05/21 05:36:53;;;;;;;;;;;13.90;79.70;;;;;;5016624;28;19973;-84
2022/05/21 05:39:19;;;;;;;;;;;13.90;80.00;;;;;;5044664;28;19936;-84
2022/05/21 05:41:44;;;;;;;;;;;13.90;79.90;;;;;;5029326;28;19913;-82
2022/05/21 05:44:10;;;;;;;;;;;13.80;79.70;;;;;;5017611;28;20303;-84
2022/05/21 05:46:36;;;;;;;;;;;13.90;79.90;;;;;;5015849;28;19913;-83
2022/05/21 05:49:02;;;;;;;;;;;13.80;79.80;;;;;;5014628;28;19924;-82
2022/05/21 05:51:28;;;;;;;;;;;13.80;79.90;;;;;;5007887;28;20009;-84
2022/05/21 05:53:54;;;;;;;;;;;13.90;80.20;;;;;;5006200;28;19957;-86
2022/05/21 05:56:19;;;;;;;;;;;13.80;79.70;;;;;;5011848;28;19917;-86
2022/05/21 06:01:29;;;;;;;;;;;13.80;79.40;;;;;;5013063;28;20279;-85
2022/05/21 06:03:54;;;;;;;;;;;13.80;79.90;;;;;;5012489;28;19913;-82
2022/05/21 06:06:20;;;;;;;;;;;13.80;80.30;;;;;;5014214;28;19925;-83
2022/05/21 06:08:46;;;;;;;;;;;13.90;79.50;;;;;;5026269;28;19920;-83
2022/05/21 06:11:12;;;;;;;;;;;14.10;78.90;;;;;;5014005;28;19917;-82
2022/05/21 06:13:37;;;;;;;;;;;14.10;78.40;;;;;;5027240;28;19936;-84
2022/05/21 06:16:03;;;;;;;;;;;14.10;78.80;;;;;;5025016;28;19918;-83
2022/05/21 06:18:29;;;;;;;;;;;14.20;78.10;;;;;;5011052;28;20331;-81
2022/05/21 06:20:57;;;;;;;;;;;14.20;78.10;;;;;;5012564;28;20284;-85
2022/05/21 06:23:23;;;;;;;;;;;14.20;77.70;;;;;;5035966;28;19952;-82
2022/05/21 06:25:49;;;;;;;;;;;14.20;78.20;;;;;;5020025;28;19921;-87
2022/05/21 06:28:15;;;;;;;;;;;14.20;78.20;;;;;;5035574;28;20166;-86
2022/05/21 06:30:41;;;;;;;;;;;14.30;77.90;;;;;;5020001;28;20281;-87
2022/05/21 06:33:13;;;;;;;;;;;14.20;78.10;;;;;;5037751;28;19914;-84
2022/05/21 06:35:39;;;;;;;;;;;14.20;78.20;;;;;;5020057;28;19921;-84
2022/05/21 06:38:04;;;;;;;;;;;14.20;78.00;;;;;;5037382;28;19941;-85
2022/05/21 06:40:30;;;;;;;;;;;14.20;77.70;;;;;;5034693;28;20351;-86
2022/05/21 06:43:00;;;;;;;;;;;14.30;77.70;;;;;;5034920;28;20015;-84
2022/05/21 06:45:27;;;;;;;;;;;14.30;77.50;;;;;;5020470;28;19958;-85
2022/05/21 06:47:53;;;;;;;;;;;14.40;77.50;;;;;;5036128;28;19927;-84
2022/05/21 06:50:18;;;;;;;;;;;14.40;77.00;;;;;;5032181;28;19921;-84
2022/05/21 06:52:44;;;;;;;;;;;14.40;77.80;;;;;;5017887;28;19927;-83
2022/05/21 06:55:09;;;;;;;;;;;14.50;77.40;;;;;;5013216;28;19924;-80
2022/05/21 06:57:35;;;;;;;;;;;14.50;76.80;;;;;;5009551;28;19918;-79
2022/05/21 07:00:01;;;;;;;;;;;14.50;77.50;;;;;;5011763;28;19925;-80
2022/05/21 07:02:26;;;;;;;;;;;14.50;76.80;;;;;;5011474;28;19918;-82
2022/05/21 07:07:45;;;;;;;;;;;14.60;76.70;;;;;;5016871;28;19956;-82
2022/05/21 07:10:15;;;;;;;;;;;14.70;76.00;;;;;;5013733;28;19940;-82
2022/05/21 07:12:40;;;;;;;;;;;14.60;76.20;;;;;;5012457;28;20316;-78
2022/05/21 07:15:06;;;;;;;;;;;14.60;76.30;;;;;;5016034;28;19946;-78
2022/05/21 07:17:32;;;;;;;;;;;14.60;76.00;;;;;;5013567;28;19925;-79
2022/05/21 07:19:57;;;;;;;;;;;14.60;76.10;;;;;;5030516;28;19913;-79
2022/05/21 07:22:23;;;;;;;;;;;14.60;76.60;;;;;;5008902;28;20236;-78
2022/05/21 07:24:49;;;;;;;;;;;14.50;76.20;;;;;;5012190;28;20253;-80
2022/05/21 07:27:15;;;;;;;;;;;14.50;76.80;;;;;;5029958;28;19921;-79
2022/05/21 07:29:41;;;;;;;;;;;14.50;76.80;;;;;;5012629;28;19920;-80
2022/05/21 07:32:14;;;;;;;;;;;14.50;77.00;;;;;;5012908;28;19913;-78
2022/05/21 07:34:39;;;;;;;;;;;14.60;77.00;;;;;;5016116;28;19980;-80
2022/05/21 07:37:05;;;;;;;;;;;14.60;76.90;;;;;;5019330;28;20004;-79
2022/05/21 07:39:30;;;;;;;;;;;14.60;77.00;;;;;;5030062;28;19917;-81
2022/05/21 07:41:56;;;;;;;;;;;14.70;77.40;;;;;;5031153;28;19913;-78
2022/05/21 07:44:21;;;;;;;;;;;14.80;75.60;;;;;;5021155;28;20009;-78
2022/05/21 07:46:47;;;;;;;;;;;14.80;75.50;;;;;;5018578;28;20234;-80
2022/05/21 07:49:12;;;;;;;;;;;15.00;75.50;;;;;;5016007;28;20044;-86
2022/05/21 07:51:37;;;;;;;;;;;15.10;75.30;;;;;;5022073;28;19913;-80
2022/05/21 07:54:03;;;;;;;;;;;15.10;75.10;;;;;;5019226;28;20418;-81
2022/05/21 07:56:30;;;;;;;;;;;15.10;74.50;;;;;;5027671;28;19913;-81
2022/05/21 07:58:56;;;;;;;;;;;15.00;74.50;;;;;;5010706;28;19957;-80
2022/05/21 08:01:22;;;;;;;;;;;15.00;75.00;;;;;;5010144;28;20285;-80
2022/05/21 08:03:47;;;;;;;;;;;15.00;75.00;;;;;;5028657;28;19913;-81
2022/05/21 08:06:13;;;;;;;;;;;15.00;75.20;;;;;;5013420;28;19956;-82
2022/05/21 08:08:39;;;;;;;;;;;15.00;75.30;;;;;;5011180;28;20000;-81
2022/05/21 08:11:04;;;;;;;;;;;15.00;75.10;;;;;;5008554;28;20447;-81
2022/05/21 08:13:30;;;;;;;;;;;14.90;75.40;;;;;;5014218;28;19913;-80
2022/05/21 08:15:56;;;;;;;;;;;14.90;75.10;;;;;;5020446;28;19980;-81
2022/05/21 08:18:21;;;;;;;;;;;15.00;75.00;;;;;;5009227;28;20008;-83
2022/05/21 08:20:48;;;;;;;;;;;15.00;74.90;;;;;;5012132;28;20641;-82
2022/05/21 08:28:43;;;;;;;;;;;15.10;74.70;;;;;;5004344;28;20304;-82
2022/05/21 08:31:09;;;;;;;;;;;15.10;75.10;;;;;;5028623;28;19917;-83
2022/05/21 08:33:34;;;;;;;;;;;15.10;74.90;;;;;;5027358;28;19963;-80
2022/05/21 08:36:00;;;;;;;;;;;15.10;74.60;;;;;;5011183;28;20784;-81
2022/05/21 08:38:26;;;;;;;;;;;15.00;74.90;;;;;;5011196;28;20352;-78
2022/05/21 08:40:57;;;;;;;;;;;15.00;75.40;;;;;;5004730;28;20211;-77
2022/05/21 08:43:45;;;;;;;;;;;15.00;75.40;;;;;;4993082;28;19997;-78
2022/05/21 08:46:17;;;;;;;;;;;14.90;75.70;;;;;;4997574;28;19964;-81
2022/05/21 08:49:02;;;;;;;;;;;15.00;75.10;;;;;;4998161;28;20330;-82
2022/05/21 08:51:32;;;;;;;;;;;15.00;75.00;;;;;;5017638;28;19972;-80
2022/05/21 08:53:58;;;;;;;;;;;15.00;75.50;;;;;;5007164;28;19917;-81
2022/05/21 08:56:24;;;;;;;;;;;15.00;75.10;;;;;;5029497;28;19917;-84
2022/05/21 08:58:52;;;;;;;;;;;14.90;75.00;;;;;;5037028;28;19917;-81
2022/05/21 09:01:22;;;;;;;;;;;14.80;75.20;;;;;;5015211;28;19917;-83
2022/05/21 09:03:50;;;;;;;;;;;14.80;75.80;;;;;;5032224;28;19937;-83
2022/05/21 09:06:18;;;;;;;;;;;14.80;75.60;;;;;;5030500;28;20240;-81
2022/05/21 09:08:44;;;;;;;;;;;14.90;75.60;;;;;;5010153;28;20293;-83
2022/05/21 09:11:12;;;;;;;;;;;15.00;74.70;;;;;;5014290;28;19917;-83
2022/05/21 09:13:59;;;;;;;;;;;15.10;75.00;;;;;;5031904;28;19921;-84
2022/05/21 09:19:09;;;;;;;;;;;15.20;74.70;;;;;;5014181;28;19920;-85
2022/05/21 09:21:39;;;;;;;;;;;15.20;75.00;;;;;;5037814;28;19921;-86
2022/05/21 09:24:05;;;;;;;;;;;15.20;74.80;;;;;;5025551;28;19948;-84
2022/05/21 09:26:31;;;;;;;;;;;15.10;75.30;;;;;;5007911;28;19922;-85
2022/05/21 09:29:11;;;;;;;;;;;15.30;75.80;;;;;;5009062;28;20376;-85
2022/05/21 09:31:37;;;;;;;;;;;15.30;75.50;;;;;;5011075;28;20004;-84
2022/05/21 09:34:11;;;;;;;;;;;15.30;75.30;;;;;;5015056;28;20468;-87
2022/05/21 09:36:37;;;;;;;;;;;15.30;74.70;;;;;;5010578;28;19918;-82
2022/05/21 09:39:02;;;;;;;;;;;15.10;75.50;;;;;;5009725;28;19921;-83
2022/05/21 09:41:30;;;;;;;;;;;15.20;76.30;;;;;;5005634;28;19914;-85
2022/05/21 09:46:46;;;;;;;;;;;15.50;75.70;;;;;;5012142;28;20339;-85
2022/05/21 09:49:23;;;;;;;;;;;15.70;75.20;;;;;;5026231;28;19909;-88
2022/05/21 09:51:53;;;;;;;;;;;15.80;74.30;;;;;;5020294;28;20004;-86
2022/05/21 09:54:19;;;;;;;;;;;15.90;74.00;;;;;;5008351;28;19960;-82
2022/05/21 09:56:52;;;;;;;;;;;16.10;73.60;;;;;;5007780;28;19921;-86
2022/05/21 09:59:19;;;;;;;;;;;16.20;72.50;;;;;;5007649;28;19920;-80
2022/05/21 10:01:46;;;;;;;;;;;16.30;71.50;;;;;;5013291;28;19959;-80
2022/05/21 10:04:16;;;;;;;;;;;16.30;72.20;;;;;;5012849;28;20421;-79
2022/05/21 10:06:45;;;;;;;;;;;16.40;71.60;;;;;;5013811;28;19913;-79
2022/05/21 10:12:10;;;;;;;;;;;16.30;71.10;;;;;;5019371;28;19925;-80
2022/05/21 10:14:42;;;;;;;;;;;16.60;70.70;;;;;;5030693;28;19917;-80
2022/05/21 10:17:20;;;;;;;;;;;16.60;70.10;;;;;;5014463;28;19960;-81
2022/05/21 10:19:59;;;;;;;;;;;16.80;69.80;;;;;;5014818;28;19920;-80
2022/05/21 10:22:31;;;;;;;;;;;17.00;69.50;;;;;;5014423;28;19964;-80
2022/05/21 10:25:05;;;;;;;;;;;17.10;66.80;;;;;;5006528;28;19953;-79
2022/05/21 10:27:38;;;;;;;;;;;17.10;67.40;;;;;;5004868;28;20001;-79
2022/05/21 10:30:22;;;;;;;;;;;17.30;67.90;;;;;;5024315;28;19959;-80
2022/05/21 10:32:53;;;;;;;;;;;17.50;66.00;;;;;;5035440;28;19920;-80
2022/05/21 10:35:31;;;;;;;;;;;17.70;66.20;;;;;;5027532;28;20001;-79
2022/05/21 10:38:15;;;;;;;;;;;17.90;64.60;;;;;;4998834;28;20012;-80
2022/05/21 10:41:00;;;;;;;;;;;18.00;66.40;;;;;;5009939;28;19923;-81
2022/05/21 10:43:25;;;;;;;;;;;18.10;63.20;;;;;;5012363;28;19940;-80
2022/05/21 10:46:13;;;;;;;;;;;18.10;64.20;;;;;;5012613;28;19917;-81
2022/05/21 10:48:57;;;;;;;;;;;18.30;64.90;;;;;;5019037;28;19977;-81
2022/05/21 10:51:49;;;;;;;;;;;18.30;62.90;;;;;;5024352;28;19917;-79
2022/05/21 10:54:25;;;;;;;;;;;18.30;62.60;;;;;;5013997;28;19929;-80
2022/05/21 10:57:08;;;;;;;;;;;18.20;63.20;;;;;;5016138;28;19991;-80
2022/05/21 10:59:45;;;;;;;;;;;18.00;63.00;;;;;;5015959;28;19909;-81
2022/05/21 11:02:19;;;;;;;;;;;17.70;65.10;;;;;;5024071;28;19959;-80
2022/05/21 11:04:50;;;;;;;;;;;17.30;65.80;;;;;;5023813;28;19917;-80
2022/05/21 11:07:22;;;;;;;;;;;17.20;66.10;;;;;;5016952;28;20400;-81
2022/05/21 11:10:02;;;;;;;;;;;17.10;66.10;;;;;;5018751;28;19921;-81
2022/05/21 11:12:27;;;;;;;;;;;17.10;65.60;;;;;;5016472;28;19913;-81
2022/05/21 11:14:56;;;;;;;;;;;17.00;65.60;;;;;;5020767;28;19913;-81
2022/05/21 11:17:43;;;;;;;;;;;17.10;64.70;;;;;;5019197;28;20222;-81
2022/05/21 11:20:17;;;;;;;;;;;17.00;65.20;;;;;;5041992;28;19910;-79
2022/05/21 11:22:53;;;;;;;;;;;16.90;65.80;;;;;;5021241;28;19940;-80
2022/05/21 11:25:19;;;;;;;;;;;16.90;66.40;;;;;;5014882;28;19913;-80
2022/05/21 11:28:03;;;;;;;;;;;16.90;66.80;;;;;;5015408;28;19913;-81
2022/05/21 11:30:28;;;;;;;;;;;16.90;67.20;;;;;;5014580;28;19929;-80
2022/05/21 11:38:44;;;;;;;;;;;17.30;65.80;;;;;;5016283;28;20407;-81
2022/05/21 11:41:24;;;;;;;;;;;17.60;65.50;;;;;;5011706;28;19924;-82
2022/05/21 11:46:46;;;;;;;;;;;18.10;63.20;;;;;;5017540;28;19975;-80
2022/05/21 11:49:27;;;;;;;;;;;18.10;62.60;;;;;;5020639;28;19913;-83
2022/05/21 11:51:58;;;;;;;;;;;18.10;64.10;;;;;;5013470;28;19921;-84
2022/05/21 11:54:43;;;;;;;;;;;18.10;64.10;;;;;;5023724;28;19914;-85
2022/05/21 11:57:09;;;;;;;;;;;18.10;63.20;;;;;;4990687;28;19921;-84
2022/05/21 11:59:48;;;;;;;;;;;18.10;64.00;;;;;;5028983;28;19971;-84
2022/05/21 12:02:20;;;;;;;;;;;18.30;61.70;;;;;;5031747;28;20008;-87
2022/05/21 12:04:47;;;;;;;;;;;18.40;61.60;;;;;;5016949;28;19920;-88
2022/05/21 12:07:36;;;;;;;;;;;18.40;61.30;;;;;;5027672;28;19968;-87
2022/05/21 12:10:03;;;;;;;;;;;18.50;60.30;;;;;;5027058;28;19917;-87
2022/05/21 12:12:29;;;;;;;;;;;18.60;60.50;;;;;;5011124;28;20365;-86
2022/05/21 12:15:08;;;;;;;;;;;18.60;60.80;;;;;;5006726;28;20728;-82
2022/05/21 12:17:56;;;;;;;;;;;18.60;60.00;;;;;;5009045;28;19917;-81
2022/05/21 12:20:41;;;;;;;;;;;18.60;60.00;;;;;;5006912;28;20056;-83
2022/05/21 12:23:11;;;;;;;;;;;18.50;59.60;;;;;;5005541;28;19917;-86
2022/05/21 12:25:43;;;;;;;;;;;18.40;60.80;;;;;;5027775;28;19913;-84
2022/05/21 12:28:09;;;;;;;;;;;18.40;60.70;;;;;;5013812;28;19920;-84
2022/05/21 12:30:35;;;;;;;;;;;18.50;60.20;;;;;;5012086;28;20019;-84
2022/05/21 12:33:00;;;;;;;;;;;18.60;60.50;;;;;;5025454;28;20525;-84
2022/05/21 12:35:32;;;;;;;;;;;18.80;59.60;;;;;;5025134;28;19979;-83
2022/05/21 12:38:04;;;;;;;;;;;18.90;59.60;;;;;;5006392;28;19925;-85
2022/05/21 12:40:42;;;;;;;;;;;19.10;60.20;;;;;;5008233;28;19913;-83
2022/05/21 12:43:09;;;;;;;;;;;19.20;58.70;;;;;;4999659;28;19960;-84
2022/05/21 12:45:45;;;;;;;;;;;19.30;58.60;;;;;;5022111;28;20021;-86
2022/05/21 12:48:27;;;;;;;;;;;19.40;58.50;;;;;;5029430;28;19918;-82
2022/05/21 12:50:53;;;;;;;;;;;19.30;58.00;;;;;;5016376;28;20312;-84
2022/05/21 12:53:26;;;;;;;;;;;19.30;58.10;;;;;;5013027;28;19921;-85
2022/05/21 12:56:02;;;;;;;;;;;19.20;59.00;;;;;;5003593;28;19918;-87
2022/05/21 12:58:28;;;;;;;;;;;19.50;56.00;;;;;;5025332;28;19913;-88
2022/05/21 13:00:55;;;;;;;;;;;19.50;57.40;;;;;;5013367;28;20377;-86
2022/05/21 13:03:22;;;;;;;;;;;19.50;57.30;;;;;;5025731;28;19913;-89
2022/05/21 13:06:07;;;;;;;;;;;19.50;57.20;;;;;;5008542;28;19925;-86
2022/05/21 13:08:34;;;;;;;;;;;19.40;57.00;;;;;;5004162;28;19960;-79
2022/05/21 13:11:04;;;;;;;;;;;19.60;56.80;;;;;;5011310;28;19917;-80
2022/05/21 13:13:38;;;;;;;;;;;19.50;56.50;;;;;;5007723;28;19929;-79
2022/05/21 13:16:06;;;;;;;;;;;19.40;55.70;;;;;;5021066;28;20348;-82
2022/05/21 13:18:34;;;;;;;;;;;19.40;57.00;;;;;;5017910;28;19921;-82
2022/05/21 13:21:19;;;;;;;;;;;19.30;57.30;;;;;;4999940;28;20534;-84
2022/05/21 13:23:58;;;;;;;;;;;19.50;56.90;;;;;;5009459;28;19918;-87
2022/05/21 13:26:25;;;;;;;;;;;19.40;57.80;;;;;;5016948;28;19923;-85
2022/05/21 13:28:51;;;;;;;;;;;19.40;56.90;;;;;;5023376;28;19975;-80
2022/05/21 13:31:17;;;;;;;;;;;19.20;57.50;;;;;;5036333;28;19921;-79
2022/05/21 13:33:50;;;;;;;;;;;19.10;58.20;;;;;;5026115;28;19921;-78
2022/05/21 13:36:16;;;;;;;;;;;19.10;58.80;;;;;;5011448;28;19917;-83
2022/05/21 13:38:44;;;;;;;;;;;19.20;57.60;;;;;;5014534;28;19921;-80
2022/05/21 13:41:14;;;;;;;;;;;19.30;58.50;;;;;;5010157;28;20316;-83
2022/05/21 13:43:44;;;;;;;;;;;19.50;57.90;;;;;;5005613;28;19918;-78
2022/05/21 13:46:10;;;;;;;;;;;19.60;57.30;;;;;;5005713;28;19980;-83
2022/05/21 13:48:46;;;;;;;;;;;19.70;56.50;;;;;;5008153;28;19917;-82
2022/05/21 13:51:13;;;;;;;;;;;19.70;57.30;;;;;;5013228;28;20407;-83
2022/05/21 13:53:39;;;;;;;;;;;19.80;56.50;;;;;;5026206;28;19996;-83
2022/05/21 13:56:21;;;;;;;;;;;19.90;55.30;;;;;;5009734;28;19971;-85
2022/05/21 13:59:01;;;;;;;;;;;20.10;52.70;;;;;;5007238;28;19922;-84
2022/05/21 14:01:31;;;;;;;;;;;20.00;52.80;;;;;;5024557;28;19956;-84
2022/05/21 14:04:07;;;;;;;;;;;19.90;53.50;;;;;;5015615;28;20355;-82
2022/05/21 14:06:32;;;;;;;;;;;19.80;54.40;;;;;;5026498;28;19921;-83
2022/05/21 14:08:59;;;;;;;;;;;19.60;55.60;;;;;;5025221;28;20008;-85
2022/05/21 14:11:25;;;;;;;;;;;19.60;54.60;;;;;;5016145;28;19917;-83
2022/05/21 14:13:56;;;;;;;;;;;19.60;57.20;;;;;;5022895;28;19917;-84
2022/05/21 14:16:32;;;;;;;;;;;19.60;56.10;;;;;;5006286;28;19972;-82
2022/05/21 14:19:11;;;;;;;;;;;19.60;55.10;;;;;;5011485;28;19918;-81
2022/05/21 14:22:00;;;;;;;;;;;19.60;55.50;;;;;;5007539;28;19952;-82
2022/05/21 14:24:33;;;;;;;;;;;19.70;56.00;;;;;;5011684;28;19923;-82
2022/05/21 14:27:03;;;;;;;;;;;19.70;54.70;;;;;;5011330;28;19921;-81
2022/05/21 14:29:37;;;;;;;;;;;19.60;55.80;;;;;;5022216;28;20381;-81
2022/05/21 14:32:20;;;;;;;;;;;19.60;55.70;;;;;;5017101;28;19921;-83
2022/05/21 14:34:47;;;;;;;;;;;19.60;55.50;;;;;;5017732;28;19922;-81
2022/05/21 14:37:28;;;;;;;;;;;19.70;54.60;;;;;;5016820;28;20015;-82
2022/05/21 14:39:54;;;;;;;;;;;19.90;54.30;;;;;;5011325;28;19921;-81
2022/05/21 14:42:20;;;;;;;;;;;20.00;54.90;;;;;;5009490;28;19921;-86
2022/05/21 14:44:45;;;;;;;;;;;20.00;54.30;;;;;;5007014;28;20510;-82
2022/05/21 14:52:53;;;;;;;;;;;20.50;53.10;;;;;;5017491;28;19999;-78
2022/05/21 14:55:19;;;;;;;;;;;20.50;53.30;;;;;;5004682;28;19963;-77
2022/05/21 14:57:45;;;;;;;;;;;20.70;54.10;;;;;;5000370;28;19997;-77
2022/05/21 15:00:11;;;;;;;;;;;20.90;51.60;;;;;;5002395;28;19937;-77
2022/05/21 15:02:37;;;;;;;;;;;20.90;52.40;;;;;;5007505;28;19917;-79
2022/05/21 15:05:04;;;;;;;;;;;21.10;51.20;;;;;;5010126;28;20064;-79
2022/05/21 15:07:30;;;;;;;;;;;21.30;50.30;;;;;;5029199;28;19913;-80
2022/05/21 15:09:56;;;;;;;;;;;21.20;50.00;;;;;;5013053;28;19921;-80